Time;durP1;ratioP1;P1;durP2;ratioP2;P2;SDS_P1;SDS_P2;PMS_P1;PMS_P2;Temp;Humidity;BMP_temperature;BMP_pressure;BME280_temperature;BME280_humidity;BME280_pressure;Samples;Min_cycle;Max_cycle;Signal;HPM_P1;HPM_P2
2023/10/04 00:01:47;;;;;;;243.00;59.10;;;;;;;;;;4985210;28;20804;-49
2023/10/04 00:04:13;;;;;;;242.67;59.27;;;;;;;;;;4993054;28;20458;-48
2023/10/04 00:06:41;;;;;;;240.50;58.80;;;;;;;;;;4993443;28;20516;-48
2023/10/04 00:09:06;;;;;;;241.73;58.65;;;;;;;;;;4995338;28;20550;-47
2023/10/04 00:11:35;;;;;;;240.27;58.27;;;;;;;;;;4995289;28;20204;-47
2023/10/04 00:14:01;;;;;;;244.97;60.80;;;;;;;;;;4994895;28;20408;-48
2023/10/04 00:16:27;;;;;;;240.07;58.43;;;;;;;;;;4994981;28;20421;-47
2023/10/04 00:18:56;;;;;;;243.03;60.47;;;;;;;;;;4994916;28;20477;-48
2023/10/04 00:21:23;;;;;;;241.80;60.90;;;;;;;;;;4995125;28;20424;-47
2023/10/04 00:23:49;;;;;;;243.70;59.40;;;;;;;;;;4995024;28;20968;-47
2023/10/04 00:26:15;;;;;;;245.33;62.53;;;;;;;;;;4995076;28;20402;-47
2023/10/04 00:28:41;;;;;;;244.03;61.73;;;;;;;;;;4994820;28;20521;-49
2023/10/04 00:31:07;;;;;;;242.53;60.17;;;;;;;;;;4994607;28;20454;-48
2023/10/04 00:33:35;;;;;;;242.03;57.90;;;;;;;;;;4994732;28;20414;-47
2023/10/04 00:36:04;;;;;;;245.00;62.13;;;;;;;;;;5002736;28;20809;-47
2023/10/04 00:38:33;;;;;;;241.73;56.77;;;;;;;;;;4994743;28;20904;-48
2023/10/04 00:40:59;;;;;;;241.23;58.97;;;;;;;;;;4994522;28;20897;-47
2023/10/04 00:43:25;;;;;;;243.40;59.50;;;;;;;;;;4999174;28;20466;-49
2023/10/04 00:45:53;;;;;;;243.87;59.47;;;;;;;;;;4994484;28;20444;-48
2023/10/04 00:48:24;;;;;;;244.37;59.47;;;;;;;;;;4985862;28;20428;-49
2023/10/04 00:50:51;;;;;;;244.77;60.30;;;;;;;;;;4994753;28;20763;-49
2023/10/04 00:53:24;;;;;;;242.10;57.70;;;;;;;;;;4994365;28;20411;-48
2023/10/04 00:55:53;;;;;;;242.87;59.73;;;;;;;;;;4994446;28;20932;-48
2023/10/04 00:58:19;;;;;;;245.03;62.27;;;;;;;;;;4990890;28;20423;-48
2023/10/04 01:00:47;;;;;;;242.43;57.60;;;;;;;;;;4994270;28;20420;-48
2023/10/04 01:03:15;;;;;;;245.73;61.30;;;;;;;;;;4993948;28;20415;-48
2023/10/04 01:05:47;;;;;;;244.77;58.97;;;;;;;;;;4993844;28;20411;-48
2023/10/04 01:08:17;;;;;;;243.07;59.30;;;;;;;;;;4994105;28;20451;-48
2023/10/04 01:10:46;;;;;;;245.27;60.40;;;;;;;;;;4993892;28;20447;-48
2023/10/04 01:13:15;;;;;;;243.52;58.80;;;;;;;;;;4993997;28;20834;-48
2023/10/04 01:15:41;;;;;;;244.82;61.75;;;;;;;;;;4993992;28;20179;-48
2023/10/04 01:18:11;;;;;;;245.77;61.73;;;;;;;;;;4993990;28;20687;-48
2023/10/04 01:20:38;;;;;;;242.70;57.57;;;;;;;;;;4993926;28;20441;-47
2023/10/04 01:23:10;;;;;;;248.87;64.53;;;;;;;;;;4993884;28;20402;-48
2023/10/04 01:25:46;;;;;;;245.87;62.33;;;;;;;;;;4993640;28;20936;-47
2023/10/04 01:28:13;;;;;;;244.77;59.87;;;;;;;;;;4993784;28;20849;-48
2023/10/04 01:30:43;;;;;;;243.30;58.93;;;;;;;;;;4993628;28;20436;-48
2023/10/04 01:33:15;;;;;;;241.47;57.20;;;;;;;;;;4993980;28;20831;-49
2023/10/04 01:35:42;;;;;;;249.33;64.67;;;;;;;;;;4993478;28;20400;-48
2023/10/04 01:38:09;;;;;;;242.75;58.55;;;;;;;;;;4993866;28;20417;-48
2023/10/04 01:40:35;;;;;;;243.20;58.87;;;;;;;;;;4993506;28;20193;-48
2023/10/04 01:43:17;;;;;;;243.10;58.73;;;;;;;;;;4993509;28;20501;-48
2023/10/04 01:45:58;;;;;;;244.20;61.65;;;;;;;;;;4993405;28;20432;-48
2023/10/04 01:48:24;;;;;;;244.97;61.37;;;;;;;;;;4988592;28;20197;-48
2023/10/04 01:50:53;;;;;;;244.90;60.93;;;;;;;;;;4993315;28;20410;-48
2023/10/04 01:53:22;;;;;;;241.68;59.22;;;;;;;;;;4989706;28;20401;-48
2023/10/04 01:55:48;;;;;;;238.03;56.83;;;;;;;;;;4993244;28;20265;-48
2023/10/04 01:58:15;;;;;;;241.80;61.07;;;;;;;;;;4993002;28;20516;-48
2023/10/04 02:00:42;;;;;;;241.10;60.03;;;;;;;;;;4992124;28;20917;-49
2023/10/04 02:03:09;;;;;;;238.43;58.53;;;;;;;;;;4993118;28;20441;-48
2023/10/04 02:05:41;;;;;;;241.33;58.90;;;;;;;;;;4992802;28;20474;-48
2023/10/04 02:08:09;;;;;;;241.17;59.60;;;;;;;;;;5003973;28;20483;-48
2023/10/04 02:10:35;;;;;;;241.43;59.77;;;;;;;;;;5005699;28;20422;-47
2023/10/04 02:13:01;;;;;;;240.50;58.03;;;;;;;;;;4995818;28;20410;-48
2023/10/04 02:15:27;;;;;;;242.10;58.77;;;;;;;;;;5012445;28;20447;-49
2023/10/04 02:17:53;;;;;;;240.27;58.70;;;;;;;;;;4994138;28;20434;-48
2023/10/04 02:20:28;;;;;;;245.23;64.00;;;;;;;;;;5007025;28;20496;-48
2023/10/04 02:22:54;;;;;;;239.90;58.97;;;;;;;;;;5000947;28;20412;-48
2023/10/04 02:25:20;;;;;;;242.00;59.33;;;;;;;;;;5000134;28;21091;-47
2023/10/04 02:27:50;;;;;;;242.93;61.37;;;;;;;;;;5008676;28;20945;-47
2023/10/04 02:30:21;;;;;;;241.30;58.60;;;;;;;;;;4992607;28;20626;-48
2023/10/04 02:32:48;;;;;;;240.13;58.17;;;;;;;;;;4992880;28;20895;-47
2023/10/04 02:35:21;;;;;;;240.27;59.00;;;;;;;;;;4992360;28;20452;-48
2023/10/04 02:37:48;;;;;;;239.53;57.73;;;;;;;;;;4979324;28;20434;-48
2023/10/04 02:40:15;;;;;;;241.53;59.70;;;;;;;;;;4986295;28;20419;-48
2023/10/04 02:42:42;;;;;;;239.37;58.57;;;;;;;;;;4987082;28;20719;-47
2023/10/04 02:45:11;;;;;;;240.97;60.17;;;;;;;;;;4973466;28;20502;-48
2023/10/04 02:47:37;;;;;;;241.27;59.07;;;;;;;;;;4973145;28;20800;-48
2023/10/04 02:50:03;;;;;;;241.13;59.77;;;;;;;;;;4990537;28;20580;-48
2023/10/04 02:52:30;;;;;;;241.43;59.13;;;;;;;;;;4978915;28;20409;-48
2023/10/04 02:54:56;;;;;;;237.83;57.77;;;;;;;;;;4972975;28;20498;-48
2023/10/04 02:57:22;;;;;;;239.03;58.60;;;;;;;;;;4978391;28;20491;-49
2023/10/04 02:59:48;;;;;;;240.97;60.13;;;;;;;;;;4990781;28;20906;-48
2023/10/04 03:02:16;;;;;;;239.13;58.97;;;;;;;;;;4973018;28;20896;-49
2023/10/04 03:04:43;;;;;;;238.37;57.57;;;;;;;;;;4990058;28;20455;-47
2023/10/04 03:07:09;;;;;;;239.87;58.27;;;;;;;;;;4991624;28;20410;-48
2023/10/04 03:09:37;;;;;;;239.67;58.37;;;;;;;;;;5008286;23;20917;-47
2023/10/04 03:12:03;;;;;;;239.43;58.93;;;;;;;;;;4989685;28;20448;-48
2023/10/04 03:14:30;;;;;;;243.93;63.53;;;;;;;;;;4978348;28;20400;-49
2023/10/04 03:16:58;;;;;;;240.00;58.37;;;;;;;;;;4996361;28;20439;-47
2023/10/04 03:19:48;;;;;;;246.57;62.30;;;;;;;;;;4977984;28;20623;-48
2023/10/04 03:22:19;;;;;;;241.83;60.20;;;;;;;;;;4976930;28;20553;-49
2023/10/04 03:24:46;;;;;;;240.10;58.65;;;;;;;;;;4976453;28;20463;-47
2023/10/04 03:27:12;;;;;;;241.37;58.70;;;;;;;;;;4976599;28;20180;-49
2023/10/04 03:29:39;;;;;;;244.13;62.73;;;;;;;;;;4976474;28;20801;-47
2023/10/04 03:32:05;;;;;;;246.37;63.60;;;;;;;;;;4974223;28;20443;-48
2023/10/04 03:34:32;;;;;;;242.37;60.17;;;;;;;;;;4976321;28;20499;-48
2023/10/04 03:37:08;;;;;;;244.53;62.27;;;;;;;;;;4976367;28;20415;-47
2023/10/04 03:39:39;;;;;;;243.70;60.60;;;;;;;;;;4976284;28;20541;-49
2023/10/04 03:42:05;;;;;;;244.10;60.20;;;;;;;;;;4977396;28;20431;-49
2023/10/04 03:44:31;;;;;;;240.90;58.80;;;;;;;;;;4975970;28;20466;-48
2023/10/04 03:46:57;;;;;;;243.23;61.43;;;;;;;;;;4976128;28;20769;-48
2023/10/04 03:49:25;;;;;;;242.10;60.33;;;;;;;;;;4976135;28;20434;-47
2023/10/04 03:51:52;;;;;;;243.70;61.40;;;;;;;;;;4976004;28;20430;-49
2023/10/04 03:54:18;;;;;;;241.93;58.97;;;;;;;;;;4975935;28;20671;-48
2023/10/04 03:56:44;;;;;;;240.67;58.50;;;;;;;;;;4976056;28;20490;-48
2023/10/04 03:59:11;;;;;;;243.10;60.50;;;;;;;;;;4975840;28;20953;-48
2023/10/04 04:01:38;;;;;;;243.13;60.93;;;;;;;;;;4975882;28;20443;-49
2023/10/04 04:04:04;;;;;;;242.80;62.50;;;;;;;;;;4975645;28;20475;-48
2023/10/04 04:06:31;;;;;;;242.60;59.10;;;;;;;;;;4975820;28;20894;-48
2023/10/04 04:08:59;;;;;;;241.93;59.67;;;;;;;;;;4975752;28;20444;-49
2023/10/04 04:11:25;;;;;;;242.20;60.70;;;;;;;;;;4976169;28;20899;-49
2023/10/04 04:13:51;;;;;;;241.70;59.87;;;;;;;;;;4975306;28;20500;-46
2023/10/04 04:16:18;;;;;;;240.67;58.97;;;;;;;;;;4975765;28;20423;-48
2023/10/04 04:18:47;;;;;;;239.80;57.27;;;;;;;;;;4975617;28;20454;-47
2023/10/04 04:21:14;;;;;;;240.87;57.67;;;;;;;;;;4975572;28;20472;-49
2023/10/04 04:23:40;;;;;;;243.47;62.90;;;;;;;;;;4974236;28;20464;-49
2023/10/04 04:26:07;;;;;;;241.07;58.77;;;;;;;;;;4975401;28;20408;-47
2023/10/04 04:28:35;;;;;;;242.63;60.33;;;;;;;;;;4975536;28;20438;-49
2023/10/04 04:31:05;;;;;;;241.40;59.23;;;;;;;;;;4975332;28;20773;-48
2023/10/04 04:33:31;;;;;;;247.67;64.23;;;;;;;;;;4975103;28;21055;-48
2023/10/04 04:36:09;;;;;;;242.43;58.97;;;;;;;;;;4975413;28;20490;-50
2023/10/04 04:38:38;;;;;;;243.17;61.47;;;;;;;;;;4969430;28;20428;-48
2023/10/04 04:41:12;;;;;;;243.70;63.17;;;;;;;;;;4975125;28;20411;-48
2023/10/04 04:43:39;;;;;;;242.87;60.27;;;;;;;;;;4974885;28;20839;-47
2023/10/04 04:46:12;;;;;;;240.87;58.77;;;;;;;;;;4975460;28;20459;-48
2023/10/04 04:48:38;;;;;;;244.17;62.80;;;;;;;;;;4975112;28;20773;-48
2023/10/04 04:51:11;;;;;;;244.73;61.97;;;;;;;;;;4974908;28;20470;-49
2023/10/04 04:53:40;;;;;;;246.07;63.60;;;;;;;;;;4974855;28;20443;-48
2023/10/04 04:56:24;;;;;;;242.30;59.57;;;;;;;;;;4975119;28;20453;-48
2023/10/04 04:58:52;;;;;;;240.73;58.27;;;;;;;;;;4974891;28;20430;-49
2023/10/04 05:01:18;;;;;;;240.48;59.58;;;;;;;;;;4974911;28;20399;-47
2023/10/04 05:03:50;;;;;;;240.67;58.97;;;;;;;;;;4974442;28;20205;-47
2023/10/04 05:06:22;;;;;;;241.67;59.53;;;;;;;;;;4974881;28;20422;-47
2023/10/04 05:08:48;;;;;;;245.97;64.30;;;;;;;;;;4974528;28;20520;-48
2023/10/04 05:11:14;;;;;;;241.77;58.53;;;;;;;;;;4974671;28;20459;-49
2023/10/04 05:13:40;;;;;;;239.87;56.97;;;;;;;;;;4974497;28;20451;-48
2023/10/04 05:16:06;;;;;;;246.13;63.03;;;;;;;;;;4974562;28;20902;-47
2023/10/04 05:18:32;;;;;;;242.17;60.13;;;;;;;;;;4974548;28;20439;-47
2023/10/04 05:21:00;;;;;;;243.03;58.57;;;;;;;;;;4974497;28;20415;-48
2023/10/04 05:23:28;;;;;;;243.50;60.60;;;;;;;;;;4974109;28;20501;-48
2023/10/04 05:25:54;;;;;;;239.63;58.97;;;;;;;;;;4974499;28;20462;-47
2023/10/04 05:28:24;;;;;;;243.27;62.40;;;;;;;;;;4974230;28;20471;-46
2023/10/04 05:30:51;;;;;;;242.00;59.77;;;;;;;;;;4974311;28;20478;-49
2023/10/04 05:33:18;;;;;;;245.53;62.03;;;;;;;;;;4973835;28;20423;-47
2023/10/04 05:35:44;;;;;;;242.10;58.37;;;;;;;;;;4974319;28;20424;-49
2023/10/04 05:38:17;;;;;;;242.27;59.20;;;;;;;;;;4973949;28;20449;-48
2023/10/04 05:40:44;;;;;;;245.20;61.93;;;;;;;;;;4974234;28;20184;-48
2023/10/04 05:43:11;;;;;;;243.87;61.03;;;;;;;;;;4973870;28;20423;-47
2023/10/04 05:45:37;;;;;;;240.83;59.20;;;;;;;;;;4973957;28;20472;-48
2023/10/04 05:48:05;;;;;;;241.83;58.87;;;;;;;;;;4973898;28;20500;-48
2023/10/04 05:50:32;;;;;;;242.53;58.77;;;;;;;;;;4973964;28;20500;-47
2023/10/04 05:53:00;;;;;;;244.00;62.60;;;;;;;;;;4973714;28;20412;-46
2023/10/04 05:55:26;;;;;;;241.07;58.83;;;;;;;;;;4973784;28;20457;-48
2023/10/04 05:57:52;;;;;;;245.07;60.10;;;;;;;;;;4973621;28;20796;-48
2023/10/04 06:00:37;;;;;;;242.37;60.20;;;;;;;;;;4970620;28;20995;-49
2023/10/04 06:03:07;;;;;;;242.93;59.33;;;;;;;;;;4973674;28;20478;-47
2023/10/04 06:05:37;;;;;;;239.87;57.90;;;;;;;;;;4973518;28;20452;-48
2023/10/04 06:08:11;;;;;;;243.17;60.23;;;;;;;;;;4973349;28;20451;-48
2023/10/04 06:10:37;;;;;;;242.63;62.47;;;;;;;;;;4971061;28;20819;-49
2023/10/04 06:13:08;;;;;;;242.90;61.77;;;;;;;;;;4973427;28;20415;-47
2023/10/04 06:15:33;;;;;;;240.73;58.80;;;;;;;;;;4973438;28;20510;-48
2023/10/04 06:18:00;;;;;;;244.30;60.77;;;;;;;;;;4973262;28;20499;-48
2023/10/04 06:20:30;;;;;;;240.33;58.13;;;;;;;;;;4973451;28;20410;-49
2023/10/04 06:22:57;;;;;;;241.23;60.43;;;;;;;;;;4973463;28;20503;-49
2023/10/04 06:25:24;;;;;;;242.87;61.27;;;;;;;;;;4973086;28;20459;-48
2023/10/04 06:27:50;;;;;;;240.17;59.60;;;;;;;;;;4968471;28;20507;-48
2023/10/04 06:30:21;;;;;;;243.03;60.13;;;;;;;;;;4972742;28;20411;-47
2023/10/04 06:32:47;;;;;;;241.87;60.17;;;;;;;;;;4973216;28;20913;-47
2023/10/04 06:35:13;;;;;;;242.00;61.50;;;;;;;;;;4972626;28;20413;-48
2023/10/04 06:37:39;;;;;;;241.23;58.97;;;;;;;;;;4973129;28;20421;-47
2023/10/04 06:40:14;;;;;;;242.87;62.90;;;;;;;;;;4972963;28;20470;-49
2023/10/04 06:42:40;;;;;;;241.67;59.07;;;;;;;;;;4973404;28;20422;-49
2023/10/04 06:45:07;;;;;;;242.47;62.23;;;;;;;;;;4972047;28;20507;-47
2023/10/04 06:47:34;;;;;;;241.57;59.77;;;;;;;;;;4973097;28;20415;-47
2023/10/04 06:50:02;;;;;;;242.17;60.07;;;;;;;;;;4972600;28;20494;-49
2023/10/04 06:52:28;;;;;;;243.10;62.30;;;;;;;;;;4973182;28;21032;-47
2023/10/04 06:54:54;;;;;;;242.27;61.03;;;;;;;;;;4972467;28;20512;-46
2023/10/04 06:57:20;;;;;;;242.00;61.77;;;;;;;;;;4972937;28;20422;-48
2023/10/04 06:59:46;;;;;;;241.50;60.97;;;;;;;;;;4972687;28;20431;-48
2023/10/04 07:02:12;;;;;;;241.40;61.00;;;;;;;;;;4972629;28;20421;-49
2023/10/04 07:04:38;;;;;;;242.17;59.63;;;;;;;;;;4972365;28;20538;-48
2023/10/04 07:07:04;;;;;;;240.30;59.50;;;;;;;;;;4972735;28;20407;-49
2023/10/04 07:09:30;;;;;;;244.23;62.27;;;;;;;;;;4972614;28;20942;-49
2023/10/04 07:11:56;;;;;;;243.40;61.40;;;;;;;;;;4972607;28;20417;-47
2023/10/04 07:14:22;;;;;;;242.17;60.30;;;;;;;;;;4972631;28;20415;-48
2023/10/04 07:16:48;;;;;;;242.43;61.50;;;;;;;;;;4972593;28;20766;-48
2023/10/04 07:19:16;;;;;;;244.80;63.53;;;;;;;;;;4972419;28;20440;-47
2023/10/04 07:21:42;;;;;;;243.47;61.67;;;;;;;;;;4972523;28;20444;-47
2023/10/04 07:24:08;;;;;;;243.17;61.13;;;;;;;;;;4972488;28;20487;-48
2023/10/04 07:26:35;;;;;;;244.00;60.27;;;;;;;;;;4972632;28;20597;-49
2023/10/04 07:29:02;;;;;;;247.17;62.50;;;;;;;;;;4972440;28;20443;-48
2023/10/04 07:31:28;;;;;;;246.60;63.33;;;;;;;;;;4972483;28;20409;-49
2023/10/04 07:33:54;;;;;;;246.97;63.60;;;;;;;;;;4972488;28;20480;-48
2023/10/04 07:36:20;;;;;;;247.87;65.33;;;;;;;;;;4972553;28;20420;-49
2023/10/04 07:38:46;;;;;;;243.60;62.30;;;;;;;;;;4972602;28;20480;-48
2023/10/04 07:41:12;;;;;;;246.80;66.90;;;;;;;;;;4973925;28;20750;-47
2023/10/04 07:43:39;;;;;;;248.47;67.17;;;;;;;;;;4977610;28;20761;-47
2023/10/04 07:46:05;;;;;;;248.27;66.97;;;;;;;;;;4972724;28;20412;-48
2023/10/04 07:48:31;;;;;;;243.77;63.87;;;;;;;;;;4972706;28;20438;-49
2023/10/04 07:50:57;;;;;;;245.37;66.57;;;;;;;;;;4972223;28;20445;-49
2023/10/04 07:53:23;;;;;;;245.73;65.23;;;;;;;;;;4972146;28;20507;-48
2023/10/04 07:55:49;;;;;;;244.57;64.90;;;;;;;;;;4972382;28;20419;-47
2023/10/04 07:58:15;;;;;;;244.10;63.33;;;;;;;;;;4975200;28;20440;-47
2023/10/04 08:00:41;;;;;;;245.87;65.30;;;;;;;;;;4973952;28;20898;-47
2023/10/04 08:03:10;;;;;;;248.77;67.07;;;;;;;;;;4975461;28;20413;-49
2023/10/04 08:05:39;;;;;;;244.70;64.60;;;;;;;;;;4975539;28;20470;-49
2023/10/04 08:08:05;;;;;;;245.60;63.63;;;;;;;;;;4975634;28;20444;-48
2023/10/04 08:10:32;;;;;;;244.07;63.23;;;;;;;;;;4975877;28;20413;-48
2023/10/04 08:13:02;;;;;;;244.43;65.43;;;;;;;;;;4975795;28;20476;-49
2023/10/04 08:15:29;;;;;;;245.53;65.37;;;;;;;;;;4976005;28;20475;-48
2023/10/04 08:17:56;;;;;;;243.60;65.57;;;;;;;;;;4975730;28;20416;-49
2023/10/04 08:20:24;;;;;;;244.13;65.33;;;;;;;;;;4975528;28;20480;-49
2023/10/04 08:22:50;;;;;;;246.37;66.17;;;;;;;;;;4975743;28;20443;-48
2023/10/04 08:25:17;;;;;;;247.80;68.17;;;;;;;;;;4975347;28;20836;-48
2023/10/04 08:27:43;;;;;;;249.53;69.53;;;;;;;;;;4975870;28;20885;-48
2023/10/04 08:30:20;;;;;;;246.97;65.13;;;;;;;;;;4975407;28;20522;-48
2023/10/04 08:32:48;;;;;;;245.63;65.73;;;;;;;;;;4975563;28;20413;-48
2023/10/04 08:35:24;;;;;;;249.33;66.93;;;;;;;;;;4974997;28;20456;-49
2023/10/04 08:37:57;;;;;;;246.37;67.20;;;;;;;;;;4975341;28;20818;-48
2023/10/04 08:40:23;;;;;;;244.83;66.67;;;;;;;;;;4967579;28;20410;-49
2023/10/04 08:42:53;;;;;;;246.57;68.83;;;;;;;;;;4975179;28;20418;-48
2023/10/04 08:45:20;;;;;;;247.67;68.80;;;;;;;;;;4967061;28;20851;-48
2023/10/04 08:47:57;;;;;;;247.33;68.23;;;;;;;;;;4975203;28;20417;-47
2023/10/04 08:50:31;;;;;;;249.57;69.77;;;;;;;;;;4972546;28;20421;-48
2023/10/04 08:53:16;;;;;;;249.87;67.43;;;;;;;;;;4975327;28;20836;-47
2023/10/04 08:55:45;;;;;;;248.20;68.53;;;;;;;;;;4971102;28;20436;-46
2023/10/04 08:58:11;;;;;;;249.50;70.73;;;;;;;;;;4973293;28;20510;-49
2023/10/04 09:00:43;;;;;;;247.63;68.30;;;;;;;;;;4973232;28;20434;-47
2023/10/04 09:03:09;;;;;;;255.63;77.13;;;;;;;;;;4974355;28;20433;-48
2023/10/04 09:05:36;;;;;;;251.93;75.87;;;;;;;;;;4974690;28;20566;-49
2023/10/04 09:08:04;;;;;;;250.40;75.13;;;;;;;;;;4973439;28;20433;-48
2023/10/04 09:10:32;;;;;;;252.17;78.17;;;;;;;;;;4971216;28;20512;-47
2023/10/04 09:12:59;;;;;;;254.80;79.37;;;;;;;;;;4965888;28;20465;-46
2023/10/04 09:15:25;;;;;;;256.03;83.97;;;;;;;;;;4973089;28;20756;-46
2023/10/04 09:17:57;;;;;;;256.40;85.50;;;;;;;;;;4972555;28;20507;-46
2023/10/04 09:20:31;;;;;;;258.13;91.17;;;;;;;;;;4965416;28;20915;-47
2023/10/04 09:22:59;;;;;;;258.37;92.80;;;;;;;;;;4971933;28;20963;-46
2023/10/04 09:25:35;;;;;;;256.47;92.23;;;;;;;;;;4972396;28;20467;-47
2023/10/04 09:28:01;;;;;;;263.07;103.80;;;;;;;;;;4972643;28;20404;-47
2023/10/04 09:30:28;;;;;;;256.77;92.87;;;;;;;;;;4972912;28;20468;-46
2023/10/04 09:32:54;;;;;;;256.87;92.80;;;;;;;;;;4973454;28;20408;-46
2023/10/04 09:35:20;;;;;;;254.63;89.83;;;;;;;;;;4974344;28;20421;-46
2023/10/04 09:37:49;;;;;;;255.70;91.07;;;;;;;;;;4973603;28;20916;-45
2023/10/04 09:40:17;;;;;;;254.47;88.23;;;;;;;;;;4973729;28;20802;-46
2023/10/04 09:42:51;;;;;;;254.60;88.80;;;;;;;;;;4974067;28;20420;-46
2023/10/04 09:45:20;;;;;;;255.10;89.10;;;;;;;;;;4973533;28;20461;-47
2023/10/04 09:47:46;;;;;;;251.33;85.33;;;;;;;;;;4969810;28;20435;-46
2023/10/04 09:50:19;;;;;;;251.53;87.53;;;;;;;;;;4973961;28;20448;-46
2023/10/04 09:52:45;;;;;;;249.50;82.13;;;;;;;;;;4974030;28;20571;-46
2023/10/04 09:55:13;;;;;;;253.13;87.33;;;;;;;;;;4973967;28;20495;-49
2023/10/04 09:57:42;;;;;;;253.57;87.27;;;;;;;;;;4974316;28;20440;-47
2023/10/04 10:00:17;;;;;;;248.73;82.23;;;;;;;;;;4973754;28;20835;-46
2023/10/04 10:02:46;;;;;;;253.10;85.67;;;;;;;;;;4973822;28;20419;-46
2023/10/04 10:05:13;;;;;;;250.90;84.70;;;;;;;;;;4973405;28;20835;-46
2023/10/04 10:07:41;;;;;;;246.60;79.93;;;;;;;;;;4973827;28;20414;-46
2023/10/04 10:10:12;;;;;;;246.50;79.87;;;;;;;;;;4973536;28;20440;-46
2023/10/04 10:12:38;;;;;;;252.80;89.30;;;;;;;;;;4974214;28;20484;-46
2023/10/04 10:15:05;;;;;;;250.63;85.20;;;;;;;;;;4973654;28;20436;-48
2023/10/04 10:17:33;;;;;;;250.93;86.57;;;;;;;;;;4973681;28;20459;-48
2023/10/04 10:19:59;;;;;;;252.80;91.07;;;;;;;;;;4972667;28;20444;-47
2023/10/04 10:22:25;;;;;;;252.90;90.23;;;;;;;;;;4973840;28;20507;-46
2023/10/04 10:24:57;;;;;;;255.43;94.20;;;;;;;;;;4973583;28;20606;-46
2023/10/04 10:27:24;;;;;;;253.70;93.80;;;;;;;;;;4966098;28;20915;-47
2023/10/04 10:29:51;;;;;;;255.47;95.67;;;;;;;;;;4973385;28;20428;-46
2023/10/04 10:32:22;;;;;;;255.97;97.40;;;;;;;;;;4973261;28;20433;-46
2023/10/04 10:34:49;;;;;;;254.73;95.30;;;;;;;;;;4973123;28;20459;-48
2023/10/04 10:37:22;;;;;;;253.60;92.27;;;;;;;;;;4973237;28;20485;-48
2023/10/04 10:39:51;;;;;;;249.13;87.63;;;;;;;;;;4973374;28;20467;-46
2023/10/04 10:42:18;;;;;;;255.60;95.23;;;;;;;;;;4973104;28;20413;-46
2023/10/04 10:44:44;;;;;;;250.57;88.20;;;;;;;;;;4973171;28;20456;-46
2023/10/04 10:47:25;;;;;;;253.77;91.43;;;;;;;;;;4972921;28;20408;-48
2023/10/04 10:49:58;;;;;;;256.77;94.23;;;;;;;;;;4972955;28;20428;-46
2023/10/04 10:52:33;;;;;;;250.63;86.73;;;;;;;;;;4965983;28;20872;-46
2023/10/04 10:55:00;;;;;;;249.90;86.70;;;;;;;;;;4972868;28;20408;-47
2023/10/04 10:57:31;;;;;;;251.47;86.73;;;;;;;;;;4972940;28;20428;-46
2023/10/04 10:59:58;;;;;;;253.00;89.90;;;;;;;;;;4972900;28;20456;-47
2023/10/04 11:02:25;;;;;;;253.33;91.57;;;;;;;;;;4972835;28;20500;-47
2023/10/04 11:04:52;;;;;;;254.97;95.13;;;;;;;;;;4972871;28;20472;-47
2023/10/04 11:07:19;;;;;;;253.13;90.27;;;;;;;;;;4972826;28;20930;-48
2023/10/04 11:09:49;;;;;;;251.97;91.10;;;;;;;;;;4972761;28;20817;-47
2023/10/04 11:12:17;;;;;;;251.67;89.90;;;;;;;;;;4972842;28;20409;-48
2023/10/04 11:14:44;;;;;;;252.63;90.97;;;;;;;;;;4972653;28;20432;-47
2023/10/04 11:17:10;;;;;;;262.20;97.57;;;;;;;;;;4971458;28;20420;-47
2023/10/04 11:19:36;;;;;;;253.80;94.07;;;;;;;;;;4969782;28;20490;-45
2023/10/04 11:22:03;;;;;;;251.13;93.83;;;;;;;;;;4975331;28;20496;-47
2023/10/04 11:24:29;;;;;;;253.00;93.63;;;;;;;;;;4971172;28;20515;-46
2023/10/04 11:26:57;;;;;;;251.37;92.23;;;;;;;;;;4972591;28;21011;-47
2023/10/04 11:29:24;;;;;;;254.07;94.43;;;;;;;;;;4972370;28;20433;-47
2023/10/04 11:31:50;;;;;;;252.30;91.17;;;;;;;;;;4973880;28;20439;-46
2023/10/04 11:34:16;;;;;;;255.10;95.90;;;;;;;;;;4976225;28;20885;-46
2023/10/04 11:36:42;;;;;;;257.63;100.47;;;;;;;;;;4979603;28;20444;-47
2023/10/04 11:39:12;;;;;;;253.57;94.50;;;;;;;;;;4977728;28;20435;-47
2023/10/04 11:41:39;;;;;;;256.87;98.60;;;;;;;;;;4976464;28;20416;-48
2023/10/04 11:44:07;;;;;;;256.47;100.40;;;;;;;;;;4975978;28;20491;-46
2023/10/04 11:46:53;;;;;;;259.20;103.00;;;;;;;;;;4976217;28;20451;-46
2023/10/04 11:49:19;;;;;;;259.57;104.17;;;;;;;;;;4971098;28;20430;-46
2023/10/04 11:51:45;;;;;;;255.37;99.73;;;;;;;;;;4976325;28;20467;-46
2023/10/04 11:54:11;;;;;;;257.47;101.93;;;;;;;;;;4975824;28;20418;-48
2023/10/04 11:56:41;;;;;;;256.83;100.33;;;;;;;;;;4976179;28;20424;-48
2023/10/04 11:59:08;;;;;;;257.23;104.63;;;;;;;;;;4975922;28;20431;-47
2023/10/04 12:01:53;;;;;;;254.67;100.90;;;;;;;;;;4976055;28;20831;-47
2023/10/04 12:04:20;;;;;;;255.23;101.73;;;;;;;;;;4967927;28;20879;-46
2023/10/04 12:06:45;;;;;;;256.07;102.93;;;;;;;;;;4971757;28;20810;-48
2023/10/04 12:09:11;;;;;;;255.47;101.73;;;;;;;;;;4975698;28;20508;-48
2023/10/04 12:11:39;;;;;;;257.07;102.43;;;;;;;;;;4975885;28;20412;-46
2023/10/04 12:14:05;;;;;;;254.00;98.70;;;;;;;;;;4975559;28;20419;-46
2023/10/04 12:16:36;;;;;;;258.00;102.20;;;;;;;;;;4975718;28;20938;-47
2023/10/04 12:19:03;;;;;;;252.73;94.83;;;;;;;;;;4976067;28;20429;-47
2023/10/04 12:21:29;;;;;;;256.07;97.50;;;;;;;;;;4975571;28;20839;-48
2023/10/04 12:23:56;;;;;;;254.97;96.50;;;;;;;;;;4975426;28;20427;-46
2023/10/04 12:26:23;;;;;;;253.83;92.70;;;;;;;;;;4968102;28;20777;-47
2023/10/04 12:28:49;;;;;;;257.53;96.23;;;;;;;;;;4975603;28;20460;-47
2023/10/04 12:31:15;;;;;;;251.63;89.57;;;;;;;;;;4975419;28;20804;-46
2023/10/04 12:33:42;;;;;;;254.77;96.80;;;;;;;;;;4975361;28;20413;-46
2023/10/04 12:36:09;;;;;;;256.17;92.13;;;;;;;;;;4975135;28;20406;-46
2023/10/04 12:38:36;;;;;;;253.30;92.53;;;;;;;;;;4975486;28;20439;-46
2023/10/04 12:41:02;;;;;;;254.90;93.37;;;;;;;;;;4975148;28;20414;-47
2023/10/04 12:43:28;;;;;;;265.17;106.80;;;;;;;;;;4974114;28;20416;-46
2023/10/04 12:45:55;;;;;;;255.67;93.97;;;;;;;;;;4975158;28;20555;-46
2023/10/04 12:48:21;;;;;;;255.80;99.07;;;;;;;;;;4975110;28;20437;-47
2023/10/04 12:50:47;;;;;;;256.63;102.33;;;;;;;;;;4975172;28;20903;-46
2023/10/04 12:53:17;;;;;;;259.30;101.90;;;;;;;;;;4974957;28;21431;-49
2023/10/04 12:55:47;;;;;;;256.03;97.70;;;;;;;;;;4975078;28;20509;-46
2023/10/04 12:58:13;;;;;;;251.60;86.83;;;;;;;;;;4974865;28;20502;-46
2023/10/04 13:00:41;;;;;;;254.20;90.77;;;;;;;;;;4974980;28;20786;-47
2023/10/04 13:03:08;;;;;;;254.53;90.57;;;;;;;;;;4974805;28;20424;-48
2023/10/04 13:05:37;;;;;;;255.77;92.73;;;;;;;;;;4968716;28;21002;-47
2023/10/04 13:08:04;;;;;;;255.50;93.90;;;;;;;;;;4974516;28;20473;-47
2023/10/04 13:10:32;;;;;;;252.30;90.03;;;;;;;;;;4974830;28;20410;-46
2023/10/04 13:12:58;;;;;;;252.03;88.73;;;;;;;;;;4974611;28;20787;-47
2023/10/04 13:15:24;;;;;;;251.50;88.40;;;;;;;;;;4974509;28;20587;-47
2023/10/04 13:17:51;;;;;;;254.07;94.63;;;;;;;;;;4974453;28;20414;-48
2023/10/04 13:20:17;;;;;;;257.77;102.53;;;;;;;;;;4974463;28;20767;-48
2023/10/04 13:22:46;;;;;;;280.73;122.17;;;;;;;;;;4973732;28;20428;-47
2023/10/04 13:25:12;;;;;;;258.57;102.63;;;;;;;;;;4954978;29;20600;-46
2023/10/04 13:27:38;;;;;;;257.33;99.87;;;;;;;;;;4971729;28;20854;-46
2023/10/04 13:30:06;;;;;;;258.13;101.87;;;;;;;;;;4974389;28;20519;-46
2023/10/04 13:32:33;;;;;;;254.97;95.43;;;;;;;;;;4974538;28;20424;-46
2023/10/04 13:35:01;;;;;;;255.13;95.90;;;;;;;;;;4974072;28;20483;-47
2023/10/04 13:37:27;;;;;;;252.50;91.73;;;;;;;;;;4974322;28;20420;-46
2023/10/04 13:39:55;;;;;;;258.00;98.73;;;;;;;;;;4974011;28;20431;-46
2023/10/04 13:42:21;;;;;;;253.03;92.77;;;;;;;;;;4974324;28;20479;-46
2023/10/04 13:44:47;;;;;;;253.03;92.80;;;;;;;;;;4954413;28;20467;-46
2023/10/04 13:47:15;;;;;;;254.30;93.17;;;;;;;;;;4971230;28;20417;-47
2023/10/04 13:49:41;;;;;;;252.57;90.07;;;;;;;;;;4973897;28;20432;-46
2023/10/04 13:52:07;;;;;;;255.57;95.33;;;;;;;;;;4974495;28;20472;-45
2023/10/04 13:54:34;;;;;;;257.03;97.47;;;;;;;;;;4972364;28;20440;-47
2023/10/04 13:57:00;;;;;;;257.60;96.40;;;;;;;;;;4974077;28;20948;-46
2023/10/04 13:59:29;;;;;;;250.97;87.93;;;;;;;;;;4974195;28;20432;-46
2023/10/04 14:01:55;;;;;;;253.90;90.73;;;;;;;;;;4973817;28;20416;-47
2023/10/04 14:04:22;;;;;;;257.77;94.33;;;;;;;;;;4973597;28;20491;-46
2023/10/04 14:06:48;;;;;;;257.03;94.43;;;;;;;;;;4973732;28;20427;-47
2023/10/04 14:09:21;;;;;;;252.47;87.93;;;;;;;;;;4973632;28;20825;-46